Wetterdaten: Woche 02.12.02 - 08.12.02 (KW49)
Datum Zeit Temperatur Luftfeuchte Luftdruck Regenmenge Wind Richtung Taupunkt Windchill
02.12.2002 00:00 2.8 C 97 % 1005.8 hPa 1.8 l/m 7.3 km/h (2 Bft) O-SO 2.3 C 1.0 C
02.12.2002 01:00 3.9 C 96 % 1005.1 hPa 0.6 l/m 9.2 km/h (2 Bft) SW 3.3 C 2.0 C
02.12.2002 02:00 3.9 C 96 % 1004.8 hPa 1.2 l/m 3.7 km/h (1 Bft) W 3.3 C 3.2 C
02.12.2002 03:00 4.1 C 98 % 1005.6 hPa 0.9 l/m 3.5 km/h (1 Bft) W-NW 3.9 C 3.4 C
02.12.2002 04:00 5.5 C 97 % 1005.6 hPa 0.0 l/m 14.4 km/h (3 Bft) W-NW 5.1 C 2.7 C
02.12.2002 05:00 5.4 C 93 % 1006.0 hPa 0.3 l/m 35.9 km/h (5 Bft) W-NW 4.4 C 0.1 C
02.12.2002 06:00 4.8 C 93 % 1006.6 hPa 0.0 l/m 21.0 km/h (4 Bft) W-NW 3.8 C 0.9 C
02.12.2002 07:00 5.0 C 91 % 1006.6 hPa 0.0 l/m 20.0 km/h (4 Bft) W-NW 3.6 C 1.2 C
02.12.2002 08:00 4.7 C 90 % 1007.1 hPa 0.0 l/m 15.5 km/h (3 Bft) W-NW 3.1 C 1.4 C
02.12.2002 09:00 4.3 C 85 % 1007.7 hPa 0.0 l/m 13.3 km/h (3 Bft) W-NW 2.0 C 1.4 C
02.12.2002 10:00 5.1 C 83 % 1007.7 hPa 0.0 l/m 5.5 km/h (1 Bft) O-SO 2.5 C 4.0 C
02.12.2002 11:00 5.4 C 82 % 1007.7 hPa 0.0 l/m 4.6 km/h (1 Bft) SO 2.5 C 4.5 C
02.12.2002 12:00 5.7 C 79 % 1006.9 hPa 0.0 l/m 5.1 km/h (1 Bft) SO 2.3 C 4.8 C
02.12.2002 13:00 5.8 C 74 % 1006.6 hPa 0.0 l/m 3.7 km/h (1 Bft) S 1.5 C 5.2 C
02.12.2002 14:00 5.8 C 73 % 1005.8 hPa 0.0 l/m 2.1 km/h (1 Bft) S 1.3 C 5.5 C
02.12.2002 15:00 5.5 C 72 % 1005.6 hPa 0.0 l/m 3.9 km/h (1 Bft) S 0.9 C 4.8 C
02.12.2002 16:00 4.9 C 75 % 1005.6 hPa 0.0 l/m 2.6 km/h (1 Bft) SO 0.9 C 4.4 C
02.12.2002 17:00 4.4 C 79 % 1005.6 hPa 0.0 l/m 1.5 km/h (1 Bft) O-SO 1.0 C 4.3 C
02.12.2002 18:00 4.0 C 86 % 1005.6 hPa 0.0 l/m 1.7 km/h (1 Bft) SO 1.8 C 3.8 C
02.12.2002 19:00 3.8 C 87 % 1006.0 hPa 0.0 l/m 0.6 km/h (0 Bft) O-SO 1.8 C 3.8 C
02.12.2002 20:00 3.7 C 85 % 1006.6 hPa 0.0 l/m 0.9 km/h (0 Bft) SO 1.4 C 3.5 C
02.12.2002 21:00 3.9 C 85 % 1006.6 hPa 0.0 l/m 0.1 km/h (0 Bft) N 1.6 C 3.9 C
02.12.2002 22:00 3.8 C 87 % 1006.6 hPa 0.0 l/m 0.0 km/h (0 Bft) N 1.8 C 3.8 C
02.12.2002 23:00 3.8 C 87 % 1006.6 hPa 0.0 l/m 2.1 km/h (1 Bft) O-SO 1.8 C 3.3 C
03.12.2002 00:00 3.7 C 88 % 1006.6 hPa 0.0 l/m 0.9 km/h (0 Bft) O-SO 2.0 C 3.7 C
03.12.2002 01:00 3.6 C 89 % 1006.6 hPa 0.0 l/m 0.0 km/h (0 Bft) N 1.9 C 3.6 C
03.12.2002 02:00 3.5 C 91 % 1006.6 hPa 0.0 l/m 0.9 km/h (0 Bft) O-SO 2.1 C 3.5 C
03.12.2002 03:00 3.4 C 91 % 1006.6 hPa 0.0 l/m 0.0 km/h (0 Bft) N 2.1 C 3.4 C
03.12.2002 04:00 3.3 C 91 % 1006.6 hPa 0.0 l/m 0.0 km/h (0 Bft) N 2.0 C 3.3 C
03.12.2002 05:00 3.2 C 93 % 1006.0 hPa 0.0 l/m 0.0 km/h (0 Bft) N 2.2 C 3.2 C
03.12.2002 06:00 3.1 C 95 % 1006.6 hPa 0.0 l/m 0.0 km/h (0 Bft) N 2.3 C 3.1 C
03.12.2002 07:00 3.2 C 95 % 1006.6 hPa 0.3 l/m 0.0 km/h (0 Bft) N 2.5 C 3.2 C
03.12.2002 08:00 3.2 C 96 % 1007.6 hPa 0.0 l/m 0.0 km/h (0 Bft) N 2.7 C 3.2 C
03.12.2002 09:00 3.6 C 98 % 1007.7 hPa 0.3 l/m 0.0 km/h (0 Bft) N 3.3 C 3.6 C
03.12.2002 10:00 4.2 C 96 % 1008.6 hPa 0.0 l/m 0.0 km/h (0 Bft) N 3.6 C 4.2 C
03.12.2002 11:00 4.4 C 90 % 1008.7 hPa 0.3 l/m 1.8 km/h (1 Bft) O-SO 3.0 C 4.1 C
03.12.2002 12:00 4.6 C 88 % 1008.6 hPa 0.0 l/m 3.6 km/h (1 Bft) O-SO 2.8 C 3.9 C
03.12.2002 13:00 4.6 C 87 % 1008.7 hPa 0.0 l/m 5.3 km/h (1 Bft) O-SO 2.7 C 3.6 C
03.12.2002 14:00 4.7 C 85 % 1008.7 hPa 0.0 l/m 2.2 km/h (1 Bft) O-SO 2.5 C 4.5 C
03.12.2002 15:00 4.0 C 87 % 1008.7 hPa 0.0 l/m 2.5 km/h (1 Bft) O-SO 2.0 C 3.5 C
03.12.2002 16:00 2.9 C 91 % 1008.7 hPa 0.0 l/m 2.7 km/h (1 Bft) O-SO 1.6 C 2.4 C
03.12.2002 17:00 2.1 C 95 % 1009.3 hPa 0.0 l/m 2.1 km/h (1 Bft) O-SO 1.3 C 1.7 C
03.12.2002 18:00 2.0 C 96 % 1009.7 hPa 0.0 l/m 3.5 km/h (1 Bft) O-SO 1.4 C 1.2 C
03.12.2002 19:00 2.2 C 96 % 1010.6 hPa 0.0 l/m 5.0 km/h (1 Bft) O-SO 1.5 C 0.8 C
03.12.2002 20:00 2.5 C 94 % 1011.2 hPa 0.0 l/m 1.0 km/h (0 Bft) O-SO 1.6 C 2.4 C
03.12.2002 21:00 2.6 C 96 % 1011.7 hPa 0.0 l/m 0.0 km/h (0 Bft) N 2.0 C 2.6 C
03.12.2002 22:00 2.7 C 97 % 1011.8 hPa 0.0 l/m 4.8 km/h (1 Bft) O-SO 2.2 C 1.3 C
03.12.2002 23:00 2.8 C 96 % 1012.0 hPa 0.0 l/m 0.7 km/h (0 Bft) W-NW 2.3 C 2.8 C
04.12.2002 00:00 2.8 C 96 % 1012.8 hPa 0.0 l/m 0.0 km/h (0 Bft) N 2.2 C 2.8 C
04.12.2002 01:00 2.6 C 97 % 1012.8 hPa 0.0 l/m 0.0 km/h (0 Bft) N 2.1 C 2.6 C
04.12.2002 02:00 2.5 C 98 % 1012.8 hPa 0.0 l/m 0.0 km/h (0 Bft) N 2.3 C 2.5 C
04.12.2002 03:00 2.7 C 98 % 1013.6 hPa 0.0 l/m 0.0 km/h (0 Bft) N 2.4 C 2.7 C
04.12.2002 04:00 2.8 C 98 % 1013.9 hPa 0.0 l/m 1.1 km/h (1 Bft) O 2.5 C 2.6 C
04.12.2002 05:00 2.8 C 97 % 1013.9 hPa 0.0 l/m 0.0 km/h (0 Bft) N 2.3 C 2.8 C
04.12.2002 06:00 2.7 C 96 % 1013.9 hPa 0.0 l/m 0.0 km/h (0 Bft) N 2.1 C 2.7 C
04.12.2002 07:00 2.8 C 96 % 1013.9 hPa 0.0 l/m 0.2 km/h (0 Bft) O 2.1 C 2.8 C
04.12.2002 08:00 2.7 C 95 % 1014.4 hPa 0.0 l/m 0.3 km/h (0 Bft) O 2.0 C 2.7 C
04.12.2002 09:00 3.1 C 92 % 1014.9 hPa 0.0 l/m 0.0 km/h (0 Bft) N 2.0 C 3.1 C
04.12.2002 10:00 3.7 C 86 % 1014.9 hPa 0.0 l/m 0.0 km/h (0 Bft) N 1.6 C 3.7 C
04.12.2002 11:00 4.2 C 80 % 1014.9 hPa 0.0 l/m 0.0 km/h (0 Bft) N 1.1 C 4.2 C
04.12.2002 12:00 4.4 C 80 % 1014.2 hPa 0.0 l/m 0.0 km/h (0 Bft) N 1.1 C 4.4 C
04.12.2002 13:00 4.3 C 80 % 1013.9 hPa 0.0 l/m 0.8 km/h (0 Bft) O-SO 1.1 C 4.2 C
04.12.2002 14:00 4.1 C 81 % 1013.9 hPa 0.0 l/m 0.0 km/h (0 Bft) N 1.0 C 4.1 C
04.12.2002 15:00 3.8 C 82 % 1014.7 hPa 0.0 l/m 0.1 km/h (0 Bft) O-SO 0.9 C 3.8 C
04.12.2002 16:00 3.4 C 84 % 1014.9 hPa 0.0 l/m 0.2 km/h (0 Bft) O-SO 0.9 C 3.4 C
04.12.2002 17:00 3.2 C 85 % 1014.9 hPa 0.0 l/m 0.1 km/h (0 Bft) N 0.9 C 3.2 C
04.12.2002 18:00 3.1 C 88 % 1014.8 hPa 0.0 l/m 0.0 km/h (0 Bft) N 1.3 C 3.1 C
04.12.2002 19:00 3.0 C 91 % 1013.9 hPa 0.0 l/m 0.2 km/h (0 Bft) O-SO 1.6 C 3.0 C
04.12.2002 20:00 2.8 C 93 % 1013.9 hPa 0.0 l/m 1.2 km/h (1 Bft) O-SO 1.8 C 2.8 C
04.12.2002 21:00 2.7 C 92 % 1013.9 hPa 0.0 l/m 0.0 km/h (0 Bft) N 1.5 C 2.7 C
04.12.2002 22:00 2.6 C 93 % 1013.6 hPa 0.0 l/m 0.0 km/h (0 Bft) N 1.6 C 2.6 C
04.12.2002 23:00 2.6 C 93 % 1012.8 hPa 0.0 l/m 0.0 km/h (0 Bft) N 1.5 C 2.6 C
05.12.2002 00:00 2.6 C 93 % 1012.8 hPa 0.0 l/m 0.0 km/h (0 Bft) N 1.6 C 2.6 C
05.12.2002 01:00 2.5 C 93 % 1011.9 hPa 0.0 l/m 0.0 km/h (0 Bft) N 1.5 C 2.5 C
05.12.2002 02:00 2.4 C 93 % 1011.8 hPa 0.0 l/m 0.0 km/h (0 Bft) N 1.4 C 2.4 C
05.12.2002 03:00 2.5 C 93 % 1011.8 hPa 0.0 l/m 0.0 km/h (0 Bft) N 1.5 C 2.5 C
05.12.2002 04:00 2.4 C 93 % 1011.8 hPa 0.0 l/m 0.0 km/h (0 Bft) N 1.5 C 2.4 C
05.12.2002 05:00 2.4 C 93 % 1011.8 hPa 0.0 l/m 0.0 km/h (0 Bft) N 1.4 C 2.4 C
05.12.2002 06:00 2.5 C 92 % 1011.8 hPa 0.0 l/m 0.0 km/h (0 Bft) N 1.3 C 2.5 C
05.12.2002 07:00 2.3 C 92 % 1011.8 hPa 0.0 l/m 0.4 km/h (0 Bft) O-NO 1.1 C 2.2 C
05.12.2002 08:00 2.4 C 92 % 1012.6 hPa 0.0 l/m 0.0 km/h (0 Bft) N 1.2 C 2.4 C
05.12.2002 09:00 2.8 C 88 % 1012.8 hPa 0.0 l/m 0.0 km/h (0 Bft) N 1.0 C 2.8 C
05.12.2002 10:00 3.5 C 81 % 1013.0 hPa 0.0 l/m 0.2 km/h (0 Bft) O-NO 0.6 C 3.5 C
05.12.2002 11:00 4.0 C 77 % 1013.3 hPa 0.0 l/m 0.6 km/h (0 Bft) NO 0.3 C 4.0 C
05.12.2002 12:00 4.2 C 75 % 1012.8 hPa 0.0 l/m 0.5 km/h (0 Bft) O-NO 0.1 C 4.1 C
05.12.2002 13:00 3.9 C 78 % 1012.8 hPa 0.0 l/m 0.8 km/h (0 Bft) O 0.3 C 3.8 C
05.12.2002 14:00 3.8 C 79 % 1012.8 hPa 0.0 l/m 0.3 km/h (0 Bft) N 0.4 C 3.8 C
05.12.2002 15:00 3.7 C 82 % 1013.3 hPa 0.0 l/m 0.7 km/h (0 Bft) N-NO 0.9 C 3.6 C
05.12.2002 16:00 3.4 C 85 % 1013.9 hPa 0.0 l/m 0.6 km/h (0 Bft) NO 1.1 C 3.3 C
05.12.2002 17:00 3.4 C 89 % 1014.1 hPa 0.0 l/m 0.5 km/h (0 Bft) O-NO 1.7 C 3.3 C
05.12.2002 18:00 3.3 C 93 % 1014.9 hPa 0.0 l/m 0.1 km/h (0 Bft) N 2.2 C 3.3 C
05.12.2002 19:00 3.3 C 96 % 1014.9 hPa 0.0 l/m 0.1 km/h (0 Bft) O 2.6 C 3.3 C
05.12.2002 20:00 3.4 C 98 % 1014.9 hPa 0.6 l/m 0.1 km/h (0 Bft) N 3.1 C 3.4 C
05.12.2002 21:00 3.6 C 98 % 1015.1 hPa 0.6 l/m 0.2 km/h (0 Bft) N 3.4 C 3.6 C
05.12.2002 22:00 3.7 C 100 % 1015.9 hPa 0.3 l/m 0.1 km/h (0 Bft) N 3.7 C 3.7 C
05.12.2002 23:00 3.9 C 100 % 1015.9 hPa 0.0 l/m 0.0 km/h (0 Bft) N 3.9 C 3.9 C
06.12.2002 00:00 4.4 C 100 % 1015.9 hPa 0.0 l/m 1.4 km/h (1 Bft) O 4.4 C 4.2 C
06.12.2002 01:00 5.6 C 93 % 1015.9 hPa 0.0 l/m 8.7 km/h (2 Bft) O 4.5 C 4.0 C
06.12.2002 02:00 5.6 C 86 % 1015.9 hPa 0.0 l/m 6.4 km/h (2 Bft) O 3.6 C 4.5 C
06.12.2002 03:00 5.6 C 83 % 1015.9 hPa 0.0 l/m 4.1 km/h (1 Bft) O 3.0 C 4.9 C
06.12.2002 04:00 5.4 C 83 % 1015.9 hPa 0.0 l/m 2.3 km/h (1 Bft) NO 2.7 C 5.1 C
06.12.2002 05:00 5.2 C 82 % 1015.9 hPa 0.0 l/m 2.1 km/h (1 Bft) NO 2.4 C 5.0 C
06.12.2002 06:00 5.1 C 80 % 1015.9 hPa 0.0 l/m 3.0 km/h (1 Bft) O-NO 1.9 C 4.6 C
06.12.2002 07:00 4.9 C 81 % 1015.9 hPa 0.0 l/m 1.0 km/h (0 Bft) NO 2.0 C 4.8 C
06.12.2002 08:00 4.5 C 82 % 1016.7 hPa 0.0 l/m 3.9 km/h (1 Bft) N-NO 1.6 C 3.8 C
06.12.2002 09:00 4.2 C 81 % 1017.0 hPa 0.0 l/m 2.4 km/h (1 Bft) N-NO 1.3 C 3.8 C
06.12.2002 10:00 3.8 C 82 % 1017.0 hPa 0.0 l/m 1.9 km/h (1 Bft) N-NO 1.0 C 3.5 C
06.12.2002 11:00 3.8 C 82 % 1017.0 hPa 0.0 l/m 2.0 km/h (1 Bft) N 1.0 C 3.4 C
06.12.2002 12:00 4.0 C 80 % 1017.0 hPa 0.0 l/m 0.6 km/h (0 Bft) N-NO 0.9 C 4.0 C
06.12.2002 13:00 4.2 C 80 % 1017.0 hPa 0.0 l/m 0.1 km/h (0 Bft) W-NW 1.1 C 4.2 C
06.12.2002 14:00 3.9 C 81 % 1017.0 hPa 0.0 l/m 0.7 km/h (0 Bft) N 1.0 C 3.8 C
06.12.2002 15:00 3.6 C 82 % 1017.0 hPa 0.0 l/m 0.3 km/h (0 Bft) NO 0.8 C 3.6 C
06.12.2002 16:00 3.4 C 81 % 1017.0 hPa 0.0 l/m 0.3 km/h (0 Bft) N 0.5 C 3.4 C
06.12.2002 17:00 3.5 C 81 % 1016.9 hPa 0.0 l/m 0.8 km/h (0 Bft) O-SO 0.5 C 3.5 C
06.12.2002 18:00 3.6 C 79 % 1017.0 hPa 0.0 l/m 10.8 km/h (2 Bft) O 0.3 C 1.1 C
06.12.2002 19:00 3.4 C 79 % 1016.8 hPa 0.0 l/m 6.4 km/h (2 Bft) O 0.1 C 1.9 C
06.12.2002 20:00 3.2 C 79 % 1017.0 hPa 0.0 l/m 10.3 km/h (2 Bft) O 0.0 C 1.1 C
06.12.2002 21:00 3.1 C 80 % 1017.0 hPa 0.0 l/m 9.0 km/h (2 Bft) O -0.1 C 0.9 C
06.12.2002 22:00 2.8 C 81 % 1017.0 hPa 0.0 l/m 4.9 km/h (1 Bft) O -0.1 C 1.9 C
06.12.2002 23:00 2.6 C 83 % 1017.0 hPa 0.0 l/m 10.4 km/h (2 Bft) O-SO -0.0 C -0.1 C
07.12.2002 00:00 2.4 C 84 % 1017.0 hPa 0.0 l/m 9.9 km/h (2 Bft) O-SO 0.0 C -0.2 C
07.12.2002 01:00 2.3 C 84 % 1017.0 hPa 0.0 l/m 9.4 km/h (2 Bft) O-SO -0.1 C -0.3 C
07.12.2002 02:00 2.1 C 85 % 1017.0 hPa 0.0 l/m 13.1 km/h (3 Bft) O-SO -0.2 C -1.4 C
07.12.2002 03:00 1.9 C 86 % 1017.0 hPa 0.0 l/m 3.8 km/h (1 Bft) O-SO -0.1 C 1.0 C
07.12.2002 04:00 1.7 C 90 % 1016.9 hPa 0.0 l/m 1.3 km/h (1 Bft) O 0.2 C 1.4 C
07.12.2002 05:00 1.6 C 91 % 1015.9 hPa 0.0 l/m 0.1 km/h (0 Bft) N 0.3 C 1.6 C
07.12.2002 06:00 1.6 C 90 % 1015.9 hPa 0.0 l/m 3.5 km/h (1 Bft) O-SO 0.1 C 0.7 C
07.12.2002 07:00 1.7 C 88 % 1015.9 hPa 0.0 l/m 1.5 km/h (1 Bft) O -0.1 C 1.3 C
07.12.2002 08:00 1.7 C 87 % 1016.7 hPa 0.0 l/m 0.5 km/h (0 Bft) O -0.2 C 1.6 C
07.12.2002 09:00 2.1 C 82 % 1017.0 hPa 0.0 l/m 1.4 km/h (1 Bft) O-NO -0.7 C 1.8 C
07.12.2002 10:00 2.2 C 79 % 1017.0 hPa 0.0 l/m 1.2 km/h (1 Bft) NO -1.0 C 2.0 C
07.12.2002 11:00 2.3 C 79 % 1017.0 hPa 0.0 l/m 2.5 km/h (1 Bft) O -1.0 C 1.7 C
07.12.2002 12:00 2.4 C 77 % 1016.0 hPa 0.0 l/m 1.8 km/h (1 Bft) NO -1.2 C 2.1 C
07.12.2002 13:00 2.4 C 76 % 1015.9 hPa 0.0 l/m 3.0 km/h (1 Bft) NO -1.3 C 1.8 C
07.12.2002 14:00 2.4 C 77 % 1015.9 hPa 0.0 l/m 1.8 km/h (1 Bft) O -1.2 C 2.0 C
07.12.2002 15:00 2.2 C 78 % 1015.9 hPa 0.0 l/m 1.7 km/h (1 Bft) NO -1.2 C 1.9 C
07.12.2002 16:00 2.1 C 77 % 1016.9 hPa 0.0 l/m 1.4 km/h (1 Bft) NO -1.6 C 1.9 C
07.12.2002 17:00 2.0 C 78 % 1017.0 hPa 0.0 l/m 1.1 km/h (1 Bft) N-NO -1.4 C 1.8 C
07.12.2002 18:00 1.9 C 80 % 1017.0 hPa 0.0 l/m 1.4 km/h (1 Bft) O-SO -1.2 C 1.6 C
07.12.2002 19:00 1.9 C 82 % 1017.0 hPa 0.0 l/m 5.3 km/h (1 Bft) O-SO -0.9 C 0.5 C
07.12.2002 20:00 2.0 C 80 % 1017.0 hPa 0.0 l/m 0.3 km/h (0 Bft) O -1.1 C 2.0 C
07.12.2002 21:00 2.0 C 79 % 1017.0 hPa 0.0 l/m 0.9 km/h (0 Bft) O-SO -1.2 C 1.8 C
07.12.2002 22:00 2.0 C 80 % 1017.0 hPa 0.0 l/m 0.4 km/h (0 Bft) N-NO -1.2 C 2.0 C
07.12.2002 23:00 1.9 C 80 % 1017.0 hPa 0.0 l/m 0.8 km/h (0 Bft) NO -1.1 C 1.8 C
08.12.2002 00:00 1.8 C 81 % 1017.0 hPa 0.0 l/m 1.1 km/h (1 Bft) O -1.2 C 1.6 C
08.12.2002 01:00 1.6 C 81 % 1017.0 hPa 0.0 l/m 1.3 km/h (1 Bft) NO -1.3 C 1.3 C
08.12.2002 02:00 1.6 C 80 % 1017.1 hPa 0.0 l/m 0.8 km/h (0 Bft) N -1.4 C 1.5 C
08.12.2002 03:00 1.5 C 82 % 1018.0 hPa 0.0 l/m 0.1 km/h (0 Bft) N -1.2 C 1.5 C
08.12.2002 04:00 1.2 C 84 % 1018.0 hPa 0.0 l/m 1.1 km/h (1 Bft) O -1.1 C 1.0 C
08.12.2002 05:00 1.0 C 86 % 1018.0 hPa 0.0 l/m 0.6 km/h (0 Bft) NO -1.0 C 0.8 C
08.12.2002 06:00 0.8 C 87 % 1018.0 hPa 0.0 l/m 1.9 km/h (1 Bft) O-SO -1.1 C 0.3 C
08.12.2002 07:00 0.7 C 87 % 1018.0 hPa 0.0 l/m 1.5 km/h (1 Bft) O -1.2 C 0.3 C
08.12.2002 08:00 0.6 C 87 % 1018.0 hPa 0.0 l/m 1.6 km/h (1 Bft) O -1.3 C 0.5 C
08.12.2002 09:00 0.8 C 86 % 1018.9 hPa 0.0 l/m 5.3 km/h (1 Bft) O -1.3 C -0.7 C
08.12.2002 10:00 1.1 C 83 % 1019.0 hPa 0.0 l/m 2.7 km/h (1 Bft) O -1.5 C 0.4 C
08.12.2002 11:00 1.2 C 82 % 1019.0 hPa 0.0 l/m 3.8 km/h (1 Bft) O-NO -1.6 C 0.2 C
08.12.2002 12:00 1.4 C 80 % 1018.8 hPa 0.0 l/m 2.8 km/h (1 Bft) NO -1.8 C 0.9 C
08.12.2002 13:00 1.4 C 78 % 1018.7 hPa 0.0 l/m 2.6 km/h (1 Bft) O -2.1 C 0.9 C
08.12.2002 14:00 1.2 C 78 % 1018.1 hPa 0.0 l/m 1.9 km/h (1 Bft) NO -2.2 C 0.9 C
08.12.2002 15:00 1.0 C 78 % 1019.0 hPa 0.0 l/m 3.9 km/h (1 Bft) O-NO -2.4 C 0.1 C
08.12.2002 16:00 0.6 C 78 % 1019.0 hPa 0.0 l/m 3.6 km/h (1 Bft) NO -2.8 C -0.3 C
08.12.2002 17:00 0.4 C 78 % 1019.0 hPa 0.0 l/m 4.7 km/h (1 Bft) NO -3.0 C -0.8 C
08.12.2002 18:00 0.1 C 77 % 1019.0 hPa 0.0 l/m 4.3 km/h (1 Bft) NO -3.4 C -0.9 C
08.12.2002 19:00 0.0 C 77 % 1019.0 hPa 0.0 l/m 1.4 km/h (1 Bft) NO -3.6 C -0.2 C
08.12.2002 20:00 0.1 C 76 % 1019.0 hPa 0.0 l/m 2.1 km/h (1 Bft) O -3.7 C -0.4 C
08.12.2002 21:00 0.2 C 77 % 1019.0 hPa 0.0 l/m 0.7 km/h (0 Bft) NO -3.4 C 0.2 C
08.12.2002 22:00 0.0 C 77 % 1019.0 hPa 0.0 l/m 2.1 km/h (1 Bft) O-NO -3.5 C -0.3 C
08.12.2002 23:00 0.1 C 77 % 1019.0 hPa 0.0 l/m 2.1 km/h (1 Bft) NO -3.5 C -0.3 C
Min-Datum _ 08.12.02 02.12.02 02.12.02 - 02.12.02 - 08.12.02 08.12.02
_ Min-Zeit 18:42 13:39 01:30 - 00:09 - 20:51 18:45
Minimum _ 0.0 C 71 % 1004.5 hPa - 0.0 km/h (0 Bft) - -3.9 C -4.7 C
Max-Datum _ 02.12.02 05.12.02 08.12.02 02.12.02 02.12.02 - 02.12.02 02.12.02
_ Max-Zeit 13:54 22:09 09:09 00:18 05:30 - 04:30 14:03
Maximum _ 6.1 C 100 % 1019.0 hPa 1.8 l/m 53.7 km/h
W-NW (7 Bft)
- 5.6 C 6.1 C
Durchschnitt _ 3.0 C 86 % 1013.4 hPa #7.2 l/m 2.6 km/h (1 Bft) O-SO 0.9 C 2.5 C

Durchschnitt Minimum Temp.2.8 C
Durchschnitt Maximum Temp.3.2 C
© Kaiko 2002